createdAt,value
2017-12-04T00:01:48.345Z,97792.03
2017-12-04T00:04:17.964Z,97790.97
2017-12-04T00:06:45.715Z,97788.63
2017-12-04T00:09:15.199Z,97791.94
2017-12-04T00:11:43.718Z,97789.59
2017-12-04T00:14:11.643Z,97787.05
2017-12-04T00:16:39.384Z,97784.55
2017-12-04T00:19:08.038Z,97795.05
2017-12-04T00:21:37.450Z,97795.05
2017-12-04T00:24:05.349Z,97801.00
2017-12-04T00:26:35.199Z,97806.42
2017-12-04T00:29:03.846Z,97801.38
2017-12-04T00:31:35.127Z,97804.37
2017-12-04T00:34:02.818Z,97804.39
2017-12-04T00:36:31.347Z,97800.94
2017-12-04T00:38:58.989Z,97807.61
2017-12-04T00:41:28.567Z,97809.66
2017-12-04T00:43:58.209Z,97814.98
2017-12-04T00:46:26.256Z,97816.39
2017-12-04T00:48:54.177Z,97814.87
2017-12-04T00:51:21.963Z,97819.14
2017-12-04T00:53:50.910Z,97815.03
2017-12-04T00:56:18.719Z,97815.95
2017-12-04T00:58:46.391Z,97816.37
2017-12-04T01:01:14.340Z,97825.56
2017-12-04T01:03:42.237Z,97818.33
2017-12-04T01:06:11.636Z,97829.67
2017-12-04T01:08:39.369Z,97826.77
2017-12-04T01:11:07.054Z,97826.80
2017-12-04T01:13:35.128Z,97826.77
2017-12-04T01:16:02.889Z,97828.73
2017-12-04T01:18:30.554Z,97830.02
2017-12-04T01:20:58.337Z,97831.63
2017-12-04T01:23:27.946Z,97839.98
2017-12-04T01:25:57.347Z,97842.98
2017-12-04T01:28:25.201Z,97846.28
2017-12-04T01:30:52.883Z,97850.86
2017-12-04T01:33:21.561Z,97847.66
2017-12-04T01:35:49.310Z,97848.52
2017-12-04T01:38:17.058Z,97858.16
2017-12-04T01:40:44.864Z,97850.80
2017-12-04T01:43:14.417Z,97843.73
2017-12-04T01:45:43.923Z,97835.41
2017-12-04T01:48:11.699Z,97837.67
2017-12-04T01:50:41.116Z,97839.36
2017-12-04T01:53:09.753Z,97827.68
2017-12-04T01:55:37.483Z,97833.20
2017-12-04T01:58:07.336Z,97847.72
2017-12-04T02:00:35.053Z,97845.04
2017-12-04T02:03:02.885Z,97845.59
2017-12-04T02:05:30.881Z,97847.62
2017-12-04T02:08:01.405Z,97841.05
2017-12-04T02:10:32.993Z,97842.36
2017-12-04T02:13:00.733Z,97847.44
2017-12-04T02:18:06.062Z,97838.55
2017-12-04T02:20:36.361Z,97843.33
2017-12-04T02:23:05.357Z,97844.13
2017-12-04T02:25:34.681Z,97850.80
2017-12-04T02:28:02.377Z,97844.04
2017-12-04T02:30:30.105Z,97838.12
2017-12-04T02:33:00.357Z,97841.05
2017-12-04T02:35:28.210Z,97846.03
2017-12-04T02:37:58.759Z,97846.56
2017-12-04T02:40:26.479Z,97854.85
2017-12-04T02:42:54.146Z,97851.45
2017-12-04T02:45:21.840Z,97847.44
2017-12-04T02:47:49.497Z,97853.77
2017-12-04T02:50:17.267Z,97845.47
2017-12-04T02:52:44.981Z,97846.44
2017-12-04T02:55:12.781Z,97851.24
2017-12-04T02:57:40.518Z,97851.45
2017-12-04T03:00:08.221Z,97850.55
2017-12-04T03:02:35.931Z,97843.55
2017-12-04T03:05:05.384Z,97848.16
2017-12-04T03:07:33.212Z,97840.64
2017-12-04T03:10:00.884Z,97841.98
2017-12-04T03:12:30.260Z,97847.84
2017-12-04T03:14:58.845Z,97840.77
2017-12-04T03:17:26.680Z,97844.48
2017-12-04T03:19:56.080Z,97844.05
2017-12-04T03:22:23.808Z,97841.02
2017-12-04T03:24:51.556Z,97840.74
2017-12-04T03:27:19.271Z,97839.05
2017-12-04T03:29:46.975Z,97840.24
2017-12-04T03:32:14.704Z,97840.64
2017-12-04T03:34:44.311Z,97838.25
2017-12-04T03:37:12.723Z,97844.58
2017-12-04T03:39:40.392Z,97841.55
2017-12-04T03:42:10.798Z,97847.16
2017-12-04T03:44:38.504Z,97850.09
2017-12-04T03:47:09.014Z,97845.11
2017-12-04T03:49:36.942Z,97849.84
2017-12-04T03:52:07.516Z,97841.89
2017-12-04T03:54:35.186Z,97843.30
2017-12-04T03:57:04.650Z,97851.16
2017-12-04T03:59:32.388Z,97850.44
2017-12-04T04:02:00.178Z,97846.77
2017-12-04T04:04:27.914Z,97848.01
2017-12-04T04:06:56.580Z,97848.84
2017-12-04T04:09:26.388Z,97845.17
2017-12-04T04:11:54.119Z,97857.58
2017-12-04T04:14:22.015Z,97849.81
2017-12-04T04:16:49.724Z,97853.19
2017-12-04T04:19:17.434Z,97859.85
2017-12-04T04:21:45.180Z,97857.30
2017-12-04T04:24:13.234Z,97856.55
2017-12-04T04:26:40.990Z,97859.88
2017-12-04T04:29:11.424Z,97867.45
2017-12-04T04:31:39.338Z,97862.06
2017-12-04T04:34:07.977Z,97867.45
2017-12-04T04:36:35.679Z,97864.12
2017-12-04T04:39:05.122Z,97871.70
2017-12-04T04:41:32.832Z,97873.76
2017-12-04T04:44:00.512Z,97874.66
2017-12-04T04:46:29.807Z,97880.14
2017-12-04T04:48:57.530Z,97879.24
2017-12-04T04:51:26.156Z,97883.52
2017-12-04T04:53:55.608Z,97879.80
2017-12-04T04:56:23.594Z,97868.86
2017-12-04T04:58:53.451Z,97874.34
2017-12-04T05:01:21.170Z,97872.67
2017-12-04T05:03:48.848Z,97873.48
2017-12-04T05:06:17.236Z,97878.84
2017-12-04T05:08:46.588Z,97872.14
2017-12-04T05:11:14.344Z,97877.31
2017-12-04T05:13:42.266Z,97888.19
2017-12-04T05:16:09.955Z,97884.52
2017-12-04T05:18:37.659Z,97888.25
2017-12-04T05:21:08.538Z,97890.41
2017-12-04T05:23:36.432Z,97887.48
2017-12-04T05:26:04.317Z,97889.22
2017-12-04T05:28:32.001Z,97890.09
2017-12-04T05:30:59.838Z,97894.37
2017-12-04T05:33:28.422Z,97898.95
2017-12-04T05:35:56.189Z,97897.27
2017-12-04T05:38:23.839Z,97893.96
2017-12-04T05:40:53.832Z,97886.55
2017-12-04T05:43:21.576Z,97886.58
2017-12-04T05:45:49.413Z,97888.66
2017-12-04T05:48:17.178Z,97887.88
2017-12-04T05:50:44.871Z,97894.55
2017-12-04T05:53:12.784Z,97890.56
2017-12-04T05:55:43.131Z,97895.90
2017-12-04T05:58:12.811Z,97893.59
2017-12-04T06:00:42.352Z,97888.76
2017-12-04T06:03:12.671Z,97890.91
2017-12-04T06:05:42.591Z,97897.30
2017-12-04T06:08:12.059Z,97898.05
2017-12-04T06:10:39.783Z,97897.30
2017-12-04T06:13:09.095Z,97893.22
2017-12-04T06:15:36.813Z,97892.06
2017-12-04T06:18:06.273Z,97900.42
2017-12-04T06:20:34.013Z,97909.69
2017-12-04T06:23:01.877Z,97920.03
2017-12-04T06:25:31.329Z,97913.17
2017-12-04T06:27:59.987Z,97918.32
2017-12-04T06:30:28.418Z,97917.16
2017-12-04T06:32:58.249Z,97923.09
2017-12-04T06:35:26.059Z,97931.95
2017-12-04T06:37:55.470Z,97935.82
2017-12-04T06:40:23.929Z,97927.18
2017-12-04T06:42:51.747Z,97940.22
2017-12-04T06:45:19.716Z,97940.28
2017-12-04T06:47:50.260Z,97932.02
2017-12-04T06:50:19.767Z,97940.75
2017-12-04T06:52:49.165Z,97947.14
2017-12-04T06:55:17.023Z,97950.55
2017-12-04T06:57:44.699Z,97952.02
2017-12-04T07:00:12.416Z,97950.77
2017-12-04T07:02:41.912Z,97966.55
2017-12-04T07:05:09.675Z,97963.61
2017-12-04T07:07:40.737Z,97976.84
2017-12-04T07:10:10.679Z,97969.98
2017-12-04T07:12:41.977Z,97972.53
2017-12-04T07:15:09.856Z,97975.91
2017-12-04T07:17:37.750Z,97982.08
2017-12-04T07:20:07.311Z,97982.45
2017-12-04T07:22:36.905Z,97991.28
2017-12-04T07:25:04.645Z,98000.89
2017-12-04T07:27:32.496Z,98000.08
2017-12-04T07:30:01.955Z,98005.17
2017-12-04T07:32:29.740Z,98006.48
2017-12-04T07:34:59.148Z,98004.30
2017-12-04T07:37:28.837Z,98008.54
2017-12-04T07:39:57.465Z,98002.45
2017-12-04T07:42:25.165Z,98011.72
2017-12-04T07:44:52.911Z,98005.58
2017-12-04T07:47:20.830Z,98011.10
2017-12-04T07:49:51.069Z,98003.36
2017-12-04T07:52:18.765Z,98000.56
2017-12-04T07:54:48.280Z,98004.33
2017-12-04T07:57:16.761Z,98013.60
2017-12-04T07:59:46.069Z,98010.39
2017-12-04T08:02:16.421Z,98013.41
2017-12-04T08:04:44.359Z,98019.81
2017-12-04T08:07:12.047Z,98012.33
2017-12-04T08:09:39.738Z,98006.17
2017-12-04T08:12:07.397Z,98009.58
2017-12-04T08:14:35.079Z,98007.61
2017-12-04T08:17:02.725Z,98006.77
2017-12-04T08:19:33.050Z,98009.80
2017-12-04T08:22:02.470Z,98009.98
2017-12-04T08:24:30.283Z,97996.84
2017-12-04T08:26:58.877Z,97998.66
2017-12-04T08:29:26.589Z,97997.37
2017-12-04T08:31:54.324Z,98010.10
2017-12-04T08:34:22.264Z,97997.80
2017-12-04T08:36:51.574Z,98012.84
2017-12-04T08:39:19.589Z,98010.91
2017-12-04T08:41:48.047Z,98023.92
2017-12-04T08:44:15.756Z,98019.90
2017-12-04T08:46:45.180Z,98028.89
2017-12-04T08:49:12.949Z,98029.70
2017-12-04T08:51:43.329Z,98032.35
2017-12-04T08:54:11.813Z,98046.25
2017-12-04T08:56:39.673Z,98036.00
2017-12-04T08:59:07.447Z,98033.69
2017-12-04T09:01:38.774Z,98030.19
2017-12-04T09:04:09.133Z,98036.05
2017-12-04T09:06:37.729Z,98033.84
2017-12-04T09:09:07.177Z,98029.87
2017-12-04T09:11:34.967Z,98037.45
2017-12-04T09:14:02.964Z,98039.70
2017-12-04T09:16:32.585Z,98039.70
2017-12-04T09:19:00.279Z,98032.42
2017-12-04T09:21:27.976Z,98035.91
2017-12-04T09:23:58.700Z,98040.72
2017-12-04T09:26:26.465Z,98049.62
2017-12-04T09:28:54.137Z,98047.73
2017-12-04T09:31:22.057Z,98036.73
2017-12-04T09:33:49.727Z,98041.03
2017-12-04T09:36:20.083Z,98048.46
2017-12-04T09:38:47.922Z,98050.70
2017-12-04T09:41:17.232Z,98042.92
2017-12-04T09:43:46.699Z,98043.30
2017-12-04T09:46:16.230Z,98043.45
2017-12-04T09:48:45.564Z,98043.59
2017-12-04T09:51:13.436Z,98047.00
2017-12-04T09:53:43.052Z,98042.44
2017-12-04T09:56:11.627Z,98047.44
2017-12-04T09:58:39.326Z,98040.46
2017-12-04T10:01:08.924Z,98042.17
2017-12-04T10:03:40.552Z,98042.44
2017-12-04T10:06:08.299Z,98038.53
2017-12-04T10:08:36.814Z,98044.34
2017-12-04T10:11:04.490Z,98033.45
2017-12-04T10:13:33.953Z,98033.73
2017-12-04T10:16:01.854Z,98030.16
2017-12-04T10:18:29.549Z,98029.34
2017-12-04T10:20:59.424Z,98029.06
2017-12-04T10:23:27.146Z,98023.30
2017-12-04T10:25:54.814Z,98021.42
2017-12-04T10:28:22.538Z,98010.72
2017-12-04T10:30:50.349Z,98009.70
2017-12-04T10:33:18.135Z,98014.48
2017-12-04T10:35:45.810Z,98013.34
2017-12-04T10:38:13.502Z,98003.48
2017-12-04T10:40:42.086Z,98010.13
2017-12-04T10:43:09.784Z,98015.27
2017-12-04T10:45:38.237Z,98020.70
2017-12-04T10:48:07.732Z,98008.88
2017-12-04T10:50:35.470Z,98013.33
2017-12-04T10:53:04.732Z,98020.06
2017-12-04T10:55:32.664Z,98020.13
2017-12-04T10:58:00.325Z,98026.73
2017-12-04T11:00:28.120Z,98027.74
2017-12-04T11:02:58.426Z,98024.83
2017-12-04T11:05:26.146Z,98032.95
2017-12-04T11:07:53.809Z,98020.67
2017-12-04T11:10:21.581Z,98016.72
2017-12-04T11:12:50.879Z,98021.89
2017-12-04T11:15:18.642Z,98019.83
2017-12-04T11:17:46.310Z,98015.56
2017-12-04T11:20:13.981Z,98013.61
2017-12-04T11:22:42.421Z,98019.48
2017-12-04T11:25:12.877Z,98017.57
2017-12-04T11:27:40.638Z,98013.41
2017-12-04T11:30:08.397Z,98014.95
2017-12-04T11:32:36.863Z,98018.67
2017-12-04T11:35:04.574Z,98011.63
2017-12-04T11:37:32.262Z,98005.47
2017-12-04T11:40:00.095Z,98006.31
2017-12-04T11:42:30.397Z,97999.24
2017-12-04T11:44:59.720Z,98009.25
2017-12-04T11:47:29.399Z,98011.58
2017-12-04T11:49:57.558Z,98002.82
2017-12-04T11:52:25.264Z,98002.03
2017-12-04T11:54:53.003Z,98012.48
2017-12-04T11:57:20.667Z,98010.41
2017-12-04T11:59:48.328Z,98010.79
2017-12-04T12:02:16.837Z,98017.60
2017-12-04T12:04:44.578Z,98012.04
2017-12-04T12:07:12.501Z,98020.10
2017-12-04T12:09:42.401Z,98013.70
2017-12-04T12:12:10.061Z,98013.78
2017-12-04T12:14:38.545Z,98005.61
2017-12-04T12:17:06.353Z,98010.79
2017-12-04T12:19:34.038Z,98004.56
2017-12-04T12:22:01.870Z,98001.66
2017-12-04T12:24:29.784Z,98008.38
2017-12-04T12:26:57.544Z,97999.53
2017-12-04T12:29:25.365Z,98005.88
2017-12-04T12:31:54.957Z,98011.66
2017-12-04T12:34:24.416Z,98013.29
2017-12-04T12:36:52.113Z,98013.38
2017-12-04T12:39:21.508Z,98013.29
2017-12-04T12:41:51.030Z,98022.86
2017-12-04T12:44:19.443Z,98020.22
2017-12-04T12:46:47.217Z,98022.17
2017-12-04T12:49:14.869Z,98012.66
2017-12-04T12:51:42.556Z,98023.27
2017-12-04T12:54:12.238Z,98021.67
2017-12-04T12:56:40.051Z,98014.54
2017-12-04T12:59:10.358Z,98014.25
2017-12-04T13:01:38.907Z,98016.81
2017-12-04T13:04:08.862Z,98015.12
2017-12-04T13:06:36.770Z,98008.84
2017-12-04T13:09:04.422Z,98015.94
2017-12-04T13:11:33.070Z,98013.94
2017-12-04T13:14:00.938Z,98016.47
2017-12-04T13:16:28.650Z,98012.69
2017-12-04T13:18:58.621Z,98013.96
2017-12-04T13:21:26.314Z,98013.20
2017-12-04T13:23:53.988Z,98010.70
2017-12-04T13:26:21.713Z,98018.21
2017-12-04T13:28:50.098Z,98013.23
2017-12-04T13:31:17.877Z,98018.73
2017-12-04T13:34:00.273Z,98017.22
2017-12-04T13:36:39.845Z,98018.81
2017-12-04T13:39:07.633Z,98013.03
2017-12-04T13:41:35.453Z,98013.98
2017-12-04T13:44:03.107Z,98010.14
2017-12-04T13:46:32.698Z,98011.86
2017-12-04T13:49:03.171Z,98006.92
2017-12-04T13:51:30.882Z,98001.56
2017-12-04T13:54:01.516Z,98005.81
2017-12-04T13:56:29.319Z,98006.66
2017-12-04T13:58:57.060Z,98004.35
2017-12-04T14:01:25.574Z,97997.89
2017-12-04T14:03:54.940Z,98006.80
2017-12-04T14:06:22.733Z,98008.05
2017-12-04T14:08:52.551Z,98015.55
2017-12-04T14:11:21.085Z,98012.88
2017-12-04T14:13:51.466Z,98017.73
2017-12-04T14:16:19.208Z,98023.56
2017-12-04T14:18:47.066Z,98026.67
2017-12-04T14:21:14.750Z,98019.84
2017-12-04T14:23:43.255Z,98028.13
2017-12-04T14:26:12.867Z,98031.16
2017-12-04T14:28:40.619Z,98031.77
2017-12-04T14:31:08.297Z,98036.80
2017-12-04T14:33:37.734Z,98030.55
2017-12-04T14:36:05.475Z,98030.11
2017-12-04T14:38:35.095Z,98030.98
2017-12-04T14:41:02.966Z,98033.48
2017-12-04T14:43:31.383Z,98029.79
2017-12-04T14:45:59.913Z,98039.01
2017-12-04T14:48:27.707Z,98040.23
2017-12-04T14:50:57.211Z,98044.36
2017-12-04T14:53:26.818Z,98051.08
2017-12-04T14:55:56.415Z,98049.02
2017-12-04T14:58:25.003Z,98043.48
2017-12-04T15:00:53.393Z,98047.63
2017-12-04T15:03:21.192Z,98037.61
2017-12-04T15:05:49.813Z,98046.95
2017-12-04T15:08:17.517Z,98044.89
2017-12-04T15:10:46.010Z,98048.20
2017-12-04T15:13:13.704Z,98050.13
2017-12-04T15:15:43.482Z,98050.91
2017-12-04T15:18:11.200Z,98048.05
2017-12-04T15:20:39.124Z,98053.15
2017-12-04T15:23:06.978Z,98055.65
2017-12-04T15:25:37.354Z,98046.42
2017-12-04T15:28:07.749Z,98057.40
2017-12-04T15:30:35.619Z,98051.52
2017-12-04T15:33:05.991Z,98051.88
2017-12-04T15:35:35.653Z,98055.25
2017-12-04T15:38:03.524Z,98061.53
2017-12-04T15:40:32.971Z,98056.44
2017-12-04T15:43:00.884Z,98050.24
2017-12-04T15:45:30.488Z,98051.81
2017-12-04T15:47:59.042Z,98058.59
2017-12-04T15:50:26.935Z,98064.91
2017-12-04T15:52:56.400Z,98067.84
2017-12-04T15:55:24.113Z,98071.98
2017-12-04T15:57:53.614Z,98067.84
2017-12-04T16:00:24.016Z,98069.53
2017-12-04T16:02:53.338Z,98059.90
2017-12-04T16:05:21.136Z,98066.59
2017-12-04T16:07:50.444Z,98072.44
2017-12-04T16:10:18.150Z,98088.70
2017-12-04T16:12:45.832Z,98092.87
2017-12-04T16:15:13.537Z,98087.08
2017-12-04T16:17:41.285Z,98105.91
2017-12-04T16:20:10.768Z,98088.70
2017-12-04T16:22:40.399Z,98082.95
2017-12-04T16:34:58.143Z,98113.06
2017-12-04T16:37:27.494Z,98121.88
2017-12-04T16:39:55.267Z,98124.76
2017-12-04T16:42:23.794Z,98124.76
2017-12-04T16:44:52.601Z,98132.80
2017-12-04T16:47:22.141Z,98129.77
2017-12-04T16:49:51.595Z,98134.57
2017-12-04T16:52:20.138Z,98134.66
2017-12-04T16:54:50.449Z,98143.91
2017-12-04T16:57:20.767Z,98146.09
2017-12-04T16:59:48.875Z,98146.16
2017-12-04T17:02:16.630Z,98146.25
2017-12-04T17:04:46.073Z,98153.38
2017-12-04T17:07:14.130Z,98153.81
2017-12-04T17:09:42.088Z,98159.38
2017-12-04T17:12:10.534Z,98161.06
2017-12-04T17:14:40.271Z,98161.03
2017-12-04T17:17:09.092Z,98160.86
2017-12-04T17:19:36.903Z,98160.63
2017-12-04T17:22:04.585Z,98163.52
2017-12-04T17:24:32.249Z,98163.72
2017-12-04T17:27:00.289Z,98170.34
2017-12-04T17:29:28.486Z,98169.47
2017-12-04T17:31:58.241Z,98174.08
2017-12-04T17:34:27.888Z,98172.67
2017-12-04T17:36:55.809Z,98175.62
2017-12-04T17:39:25.371Z,98168.95
2017-12-04T17:41:54.925Z,98182.48
2017-12-04T17:44:22.644Z,98176.81
2017-12-04T17:46:50.408Z,98184.35
2017-12-04T17:49:18.475Z,98181.76
2017-12-04T17:51:47.243Z,98183.08
2017-12-04T17:54:15.635Z,98187.14
2017-12-04T17:56:44.317Z,98197.06
2017-12-04T17:59:12.895Z,98193.16
2017-12-04T18:01:41.347Z,98189.70
2017-12-04T18:04:09.240Z,98188.04
2017-12-04T18:06:40.151Z,98199.33
2017-12-04T18:09:09.787Z,98204.86
2017-12-04T18:11:37.631Z,98214.12
2017-12-04T18:14:07.894Z,98218.78
2017-12-04T18:16:35.716Z,98215.05
2017-12-04T18:19:03.511Z,98208.42
2017-12-04T18:21:31.242Z,98214.65
2017-12-04T18:23:59.070Z,98219.69
2017-12-04T18:26:27.832Z,98222.25
2017-12-04T18:28:55.590Z,98234.27
2017-12-04T18:31:23.392Z,98217.35
2017-12-04T18:33:51.240Z,98227.44
2017-12-04T18:36:20.870Z,98230.05
2017-12-04T18:38:48.863Z,98231.55
2017-12-04T18:41:18.480Z,98227.30
2017-12-04T18:43:46.283Z,98237.52
2017-12-04T18:46:15.826Z,98239.61
2017-12-04T18:48:43.722Z,98243.05
2017-12-04T18:51:13.646Z,98241.83
2017-12-04T18:53:43.367Z,98241.37
2017-12-04T18:56:11.338Z,98242.09
2017-12-04T18:58:39.198Z,98234.58
2017-12-04T19:01:06.987Z,98244.81
2017-12-04T19:03:34.710Z,98247.66
2017-12-04T19:06:02.418Z,98243.00
2017-12-04T19:08:30.289Z,98244.01
2017-12-04T19:10:58.767Z,98251.27
2017-12-04T19:13:26.567Z,98254.07
2017-12-04T19:15:56.802Z,98252.28
2017-12-04T19:18:27.215Z,98258.31
2017-12-04T19:20:55.079Z,98251.80
2017-12-04T19:23:25.414Z,98260.22
2017-12-04T19:25:54.473Z,98257.80
2017-12-04T19:28:22.681Z,98258.73
2017-12-04T19:30:50.910Z,98268.50
2017-12-04T19:33:18.930Z,98270.69
2017-12-04T19:35:46.886Z,98270.25
2017-12-04T19:38:15.630Z,98269.81
2017-12-04T19:40:43.653Z,98264.27
2017-12-04T19:43:13.135Z,98274.72
2017-12-04T19:45:41.353Z,98279.30
2017-12-04T19:48:10.099Z,98284.33
2017-12-04T19:50:38.033Z,98283.77
2017-12-04T19:53:06.730Z,98282.11
2017-12-04T19:55:36.494Z,98288.52
2017-12-04T19:58:04.412Z,98294.84
2017-12-04T20:00:33.585Z,98294.41
2017-12-04T20:03:01.558Z,98289.92
2017-12-04T20:05:29.651Z,98289.36
2017-12-04T20:07:58.420Z,98293.55
2017-12-04T20:10:26.577Z,98297.18
2017-12-04T20:12:57.060Z,98299.81
2017-12-04T20:15:24.956Z,98301.00
2017-12-04T20:17:53.626Z,98301.00
2017-12-04T20:20:23.565Z,98313.52
2017-12-04T20:22:52.554Z,98314.86
2017-12-04T20:25:21.399Z,98318.70
2017-12-04T20:27:49.901Z,98317.08
2017-12-04T20:30:17.937Z,98317.86
2017-12-04T20:32:45.988Z,98324.50
2017-12-04T20:35:13.752Z,98324.06
2017-12-04T20:37:41.824Z,98324.06
2017-12-04T20:40:12.302Z,98323.63
2017-12-04T20:42:40.230Z,98331.22
2017-12-04T20:45:08.160Z,98328.72
2017-12-04T20:47:36.782Z,98330.03
2017-12-04T20:50:04.865Z,98325.84
2017-12-04T20:52:35.193Z,98332.98
2017-12-04T20:55:04.029Z,98334.26
2017-12-04T20:57:32.077Z,98337.20
2017-12-04T21:00:01.638Z,98336.45
2017-12-04T21:02:31.350Z,98331.53
2017-12-04T21:04:59.970Z,98339.48
2017-12-04T21:07:29.422Z,98336.20
2017-12-04T21:10:09.032Z,98346.30
2017-12-04T21:12:36.745Z,98336.38
2017-12-04T21:15:18.079Z,98335.84
2017-12-04T21:17:45.816Z,98343.77
2017-12-04T21:20:13.518Z,98355.75
2017-12-04T21:22:43.578Z,98347.40
2017-12-04T21:25:11.370Z,98349.09
2017-12-04T21:27:39.126Z,98344.96
2017-12-04T21:30:07.048Z,98348.25
2017-12-04T21:32:34.796Z,98345.02
2017-12-04T21:35:04.096Z,98350.44
2017-12-04T21:37:31.846Z,98350.78
2017-12-04T21:40:01.259Z,98351.16
2017-12-04T21:42:28.981Z,98352.00
2017-12-04T21:44:59.632Z,98352.41
2017-12-04T21:47:27.759Z,98356.16
2017-12-04T21:49:56.011Z,98362.48
2017-12-04T21:52:23.717Z,98367.43
2017-12-04T21:54:51.831Z,98366.59
2017-12-04T21:57:19.665Z,98366.15
2017-12-04T21:59:47.491Z,98371.69
2017-12-04T22:02:15.978Z,98378.32
2017-12-04T22:04:44.463Z,98382.58
2017-12-04T22:07:13.896Z,98381.80
2017-12-04T22:09:42.615Z,98386.45
2017-12-04T22:12:11.923Z,98389.09
2017-12-04T22:14:41.392Z,98392.72
2017-12-04T22:17:09.847Z,98398.23
2017-12-04T22:19:37.521Z,98394.84
2017-12-04T22:22:06.842Z,98414.13
2017-12-04T22:24:34.555Z,98414.69
2017-12-04T22:27:02.332Z,98415.50
2017-12-04T22:29:29.979Z,98420.23
2017-12-04T22:31:57.670Z,98422.70
2017-12-04T22:34:25.366Z,98427.36
2017-12-04T22:36:53.034Z,98440.33
2017-12-04T22:39:20.772Z,98442.05
2017-12-04T22:41:48.548Z,98451.63
2017-12-04T22:44:16.248Z,98446.30
2017-12-04T22:46:44.091Z,98446.68
2017-12-04T22:49:11.853Z,98445.99
2017-12-04T22:51:39.543Z,98450.19
2017-12-04T22:54:08.135Z,98450.16
2017-12-04T22:56:36.004Z,98444.87
2017-12-04T22:59:05.421Z,98451.50
2017-12-04T23:01:34.793Z,98450.69
2017-12-04T23:04:05.135Z,98443.98
2017-12-04T23:06:33.131Z,98452.47
2017-12-04T23:09:02.929Z,98453.81
2017-12-04T23:24:31.527Z,98464.65
2017-12-04T23:27:00.046Z,98474.23
2017-12-04T23:29:28.579Z,98470.85
2017-12-04T23:31:56.438Z,98472.16
2017-12-04T23:34:24.117Z,98466.41
2017-12-04T23:36:51.910Z,98468.13
2017-12-04T23:39:19.576Z,98472.36
2017-12-04T23:41:47.414Z,98475.30
2017-12-04T23:44:16.921Z,98474.45
2017-12-04T23:46:45.396Z,98476.17
2017-12-04T23:49:13.086Z,98484.22
2017-12-04T23:51:43.378Z,98477.58
2017-12-04T23:54:12.808Z,98476.27
2017-12-04T23:56:40.813Z,98478.42
2017-12-04T23:59:08.473Z,98484.75
